sensor_id;sensor_type;location;lat;lon;timestamp;temperature;humidity
6810;DHT22;3443;48.812;9.112;2023-04-15T00:02:16;5.60;99.90
6810;DHT22;3443;48.812;9.112;2023-04-15T00:04:44;5.60;99.90
6810;DHT22;3443;48.812;9.112;2023-04-15T00:07:09;5.50;99.90
6810;DHT22;3443;48.812;9.112;2023-04-15T00:09:35;5.50;99.90
6810;DHT22;3443;48.812;9.112;2023-04-15T00:12:01;5.50;99.90
6810;DHT22;3443;48.812;9.112;2023-04-15T00:14:27;5.50;99.90
6810;DHT22;3443;48.812;9.112;2023-04-15T00:16:52;5.40;99.90
6810;DHT22;3443;48.812;9.112;2023-04-15T00:19:20;5.40;99.90
6810;DHT22;3443;48.812;9.112;2023-04-15T00:21:46;5.40;99.90
6810;DHT22;3443;48.812;9.112;2023-04-15T00:24:12;5.30;99.90
6810;DHT22;3443;48.812;9.112;2023-04-15T00:26:38;5.30;99.90
6810;DHT22;3443;48.812;9.112;2023-04-15T00:29:03;5.30;99.90
6810;DHT22;3443;48.812;9.112;2023-04-15T00:31:30;5.20;99.90
6810;DHT22;3443;48.812;9.112;2023-04-15T00:33:56;5.20;99.90
6810;DHT22;3443;48.812;9.112;2023-04-15T00:36:21;5.20;99.90
6810;DHT22;3443;48.812;9.112;2023-04-15T00:38:47;5.30;99.90
6810;DHT22;3443;48.812;9.112;2023-04-15T00:41:13;5.30;99.90
6810;DHT22;3443;48.812;9.112;2023-04-15T00:43:39;5.20;99.90
6810;DHT22;3443;48.812;9.112;2023-04-15T00:46:05;5.20;99.90
6810;DHT22;3443;48.812;9.112;2023-04-15T00:48:32;5.20;99.90
6810;DHT22;3443;48.812;9.112;2023-04-15T00:50:58;5.10;99.90
6810;DHT22;3443;48.812;9.112;2023-04-15T00:53:23;5.10;99.90
6810;DHT22;3443;48.812;9.112;2023-04-15T00:55:49;5.10;99.90
6810;DHT22;3443;48.812;9.112;2023-04-15T00:58:15;5.00;99.90
6810;DHT22;3443;48.812;9.112;2023-04-15T01:00:41;5.00;99.90
6810;DHT22;3443;48.812;9.112;2023-04-15T01:03:07;4.90;99.90
6810;DHT22;3443;48.812;9.112;2023-04-15T01:05:33;4.90;99.90
6810;DHT22;3443;48.812;9.112;2023-04-15T01:07:59;4.90;99.90
6810;DHT22;3443;48.812;9.112;2023-04-15T01:10:24;4.90;99.90
6810;DHT22;3443;48.812;9.112;2023-04-15T01:12:50;4.90;99.90
6810;DHT22;3443;48.812;9.112;2023-04-15T01:15:16;4.90;99.90
6810;DHT22;3443;48.812;9.112;2023-04-15T01:17:42;4.90;99.90
6810;DHT22;3443;48.812;9.112;2023-04-15T01:20:08;4.90;99.90
6810;DHT22;3443;48.812;9.112;2023-04-15T01:22:37;4.90;99.90
6810;DHT22;3443;48.812;9.112;2023-04-15T01:25:11;4.90;99.90
6810;DHT22;3443;48.812;9.112;2023-04-15T01:27:40;4.80;99.90
6810;DHT22;3443;48.812;9.112;2023-04-15T01:30:07;4.70;99.90
6810;DHT22;3443;48.812;9.112;2023-04-15T01:32:33;4.70;99.90
6810;DHT22;3443;48.812;9.112;2023-04-15T01:34:59;4.70;99.90
6810;DHT22;3443;48.812;9.112;2023-04-15T01:37:24;4.70;99.90
6810;DHT22;3443;48.812;9.112;2023-04-15T01:39:50;4.70;99.90
6810;DHT22;3443;48.812;9.112;2023-04-15T01:42:16;4.70;99.90
6810;DHT22;3443;48.812;9.112;2023-04-15T01:44:41;4.60;99.90
6810;DHT22;3443;48.812;9.112;2023-04-15T01:47:07;4.60;99.90
6810;DHT22;3443;48.812;9.112;2023-04-15T01:49:33;4.60;99.90
6810;DHT22;3443;48.812;9.112;2023-04-15T01:51:58;4.60;99.90
6810;DHT22;3443;48.812;9.112;2023-04-15T01:54:25;4.60;99.90
6810;DHT22;3443;48.812;9.112;2023-04-15T01:56:52;4.60;99.90
6810;DHT22;3443;48.812;9.112;2023-04-15T01:59:17;4.60;99.90
6810;DHT22;3443;48.812;9.112;2023-04-15T02:01:43;4.50;99.90
6810;DHT22;3443;48.812;9.112;2023-04-15T02:04:09;4.50;99.90
6810;DHT22;3443;48.812;9.112;2023-04-15T02:06:44;4.40;99.90
6810;DHT22;3443;48.812;9.112;2023-04-15T02:09:10;4.40;99.90
6810;DHT22;3443;48.812;9.112;2023-04-15T02:11:36;4.40;99.90
6810;DHT22;3443;48.812;9.112;2023-04-15T02:14:02;4.40;99.90
6810;DHT22;3443;48.812;9.112;2023-04-15T02:16:30;4.40;99.90
6810;DHT22;3443;48.812;9.112;2023-04-15T02:18:56;4.40;99.90
6810;DHT22;3443;48.812;9.112;2023-04-15T02:21:21;4.30;99.90
6810;DHT22;3443;48.812;9.112;2023-04-15T02:23:47;4.30;99.90
6810;DHT22;3443;48.812;9.112;2023-04-15T02:26:13;4.30;99.90
6810;DHT22;3443;48.812;9.112;2023-04-15T02:28:39;4.30;99.90
6810;DHT22;3443;48.812;9.112;2023-04-15T02:31:06;4.30;99.90
6810;DHT22;3443;48.812;9.112;2023-04-15T02:33:32;4.30;99.90
6810;DHT22;3443;48.812;9.112;2023-04-15T02:35:58;4.20;99.90
6810;DHT22;3443;48.812;9.112;2023-04-15T02:38:23;4.20;99.90
6810;DHT22;3443;48.812;9.112;2023-04-15T02:40:49;4.20;99.90
6810;DHT22;3443;48.812;9.112;2023-04-15T02:43:15;4.10;99.90
6810;DHT22;3443;48.812;9.112;2023-04-15T02:45:45;4.10;99.90
6810;DHT22;3443;48.812;9.112;2023-04-15T02:48:11;4.10;99.90
6810;DHT22;3443;48.812;9.112;2023-04-15T02:50:37;4.10;99.90
6810;DHT22;3443;48.812;9.112;2023-04-15T02:53:06;4.00;99.90
6810;DHT22;3443;48.812;9.112;2023-04-15T02:55:32;4.10;99.90
6810;DHT22;3443;48.812;9.112;2023-04-15T02:57:57;4.00;99.90
6810;DHT22;3443;48.812;9.112;2023-04-15T03:00:25;4.10;99.90
6810;DHT22;3443;48.812;9.112;2023-04-15T03:02:51;4.00;99.90
6810;DHT22;3443;48.812;9.112;2023-04-15T03:05:21;4.00;99.90
6810;DHT22;3443;48.812;9.112;2023-04-15T03:07:49;3.90;99.90
6810;DHT22;3443;48.812;9.112;2023-04-15T03:10:14;3.90;99.90
6810;DHT22;3443;48.812;9.112;2023-04-15T03:12:40;3.90;99.90
6810;DHT22;3443;48.812;9.112;2023-04-15T03:15:06;3.80;99.90
6810;DHT22;3443;48.812;9.112;2023-04-15T03:17:32;3.90;99.90
6810;DHT22;3443;48.812;9.112;2023-04-15T03:19:58;3.90;99.90
6810;DHT22;3443;48.812;9.112;2023-04-15T03:22:23;3.90;99.90
6810;DHT22;3443;48.812;9.112;2023-04-15T03:24:50;3.90;99.90
6810;DHT22;3443;48.812;9.112;2023-04-15T03:27:16;3.90;99.90
6810;DHT22;3443;48.812;9.112;2023-04-15T03:29:41;3.90;99.90
6810;DHT22;3443;48.812;9.112;2023-04-15T03:32:07;3.90;99.90
6810;DHT22;3443;48.812;9.112;2023-04-15T03:34:33;3.90;99.90
6810;DHT22;3443;48.812;9.112;2023-04-15T03:36:58;3.90;99.90
6810;DHT22;3443;48.812;9.112;2023-04-15T03:39:24;3.80;99.90
6810;DHT22;3443;48.812;9.112;2023-04-15T03:41:49;3.90;99.90
6810;DHT22;3443;48.812;9.112;2023-04-15T03:44:15;3.80;99.90
6810;DHT22;3443;48.812;9.112;2023-04-15T03:46:40;3.90;99.90
6810;DHT22;3443;48.812;9.112;2023-04-15T03:49:06;3.90;99.90
6810;DHT22;3443;48.812;9.112;2023-04-15T03:51:32;3.90;99.90
6810;DHT22;3443;48.812;9.112;2023-04-15T03:53:57;3.80;99.90
6810;DHT22;3443;48.812;9.112;2023-04-15T03:56:23;3.80;99.90
6810;DHT22;3443;48.812;9.112;2023-04-15T03:58:49;3.80;99.90
6810;DHT22;3443;48.812;9.112;2023-04-15T04:01:15;3.80;99.90
6810;DHT22;3443;48.812;9.112;2023-04-15T04:03:41;3.80;99.90
6810;DHT22;3443;48.812;9.112;2023-04-15T04:06:06;3.70;99.90
6810;DHT22;3443;48.812;9.112;2023-04-15T04:08:32;3.70;99.90
6810;DHT22;3443;48.812;9.112;2023-04-15T04:10:58;3.70;99.90
6810;DHT22;3443;48.812;9.112;2023-04-15T04:13:23;3.70;99.90
6810;DHT22;3443;48.812;9.112;2023-04-15T04:15:49;3.70;99.90
6810;DHT22;3443;48.812;9.112;2023-04-15T04:18:15;3.70;99.90
6810;DHT22;3443;48.812;9.112;2023-04-15T04:20:40;3.70;99.90
6810;DHT22;3443;48.812;9.112;2023-04-15T04:23:06;3.60;99.90
6810;DHT22;3443;48.812;9.112;2023-04-15T04:25:32;3.60;99.90
6810;DHT22;3443;48.812;9.112;2023-04-15T04:27:58;3.50;99.90
6810;DHT22;3443;48.812;9.112;2023-04-15T04:30:23;3.50;99.90
6810;DHT22;3443;48.812;9.112;2023-04-15T04:32:49;3.40;99.90
6810;DHT22;3443;48.812;9.112;2023-04-15T04:35:16;3.40;99.90
6810;DHT22;3443;48.812;9.112;2023-04-15T04:37:41;3.40;99.90
6810;DHT22;3443;48.812;9.112;2023-04-15T04:40:07;3.40;99.90
6810;DHT22;3443;48.812;9.112;2023-04-15T04:42:33;3.40;99.90
6810;DHT22;3443;48.812;9.112;2023-04-15T04:44:59;3.40;99.90
6810;DHT22;3443;48.812;9.112;2023-04-15T04:47:25;3.40;99.90
6810;DHT22;3443;48.812;9.112;2023-04-15T04:49:50;3.40;99.90
6810;DHT22;3443;48.812;9.112;2023-04-15T04:52:16;3.30;99.90
6810;DHT22;3443;48.812;9.112;2023-04-15T04:54:42;3.40;99.90
6810;DHT22;3443;48.812;9.112;2023-04-15T04:57:07;3.30;99.90
6810;DHT22;3443;48.812;9.112;2023-04-15T04:59:33;3.30;99.90
6810;DHT22;3443;48.812;9.112;2023-04-15T05:01:58;3.30;99.90
6810;DHT22;3443;48.812;9.112;2023-04-15T05:04:24;3.30;99.90
6810;DHT22;3443;48.812;9.112;2023-04-15T05:06:50;3.20;99.90
6810;DHT22;3443;48.812;9.112;2023-04-15T05:09:16;3.30;99.90
6810;DHT22;3443;48.812;9.112;2023-04-15T05:11:41;3.30;99.90
6810;DHT22;3443;48.812;9.112;2023-04-15T05:14:07;3.30;99.90
6810;DHT22;3443;48.812;9.112;2023-04-15T05:16:32;3.30;99.90
6810;DHT22;3443;48.812;9.112;2023-04-15T05:18:58;3.40;99.90
6810;DHT22;3443;48.812;9.112;2023-04-15T05:21:23;3.40;99.90
6810;DHT22;3443;48.812;9.112;2023-04-15T05:23:50;3.40;99.90
6810;DHT22;3443;48.812;9.112;2023-04-15T05:26:15;3.40;99.90
6810;DHT22;3443;48.812;9.112;2023-04-15T05:28:41;3.40;99.90
6810;DHT22;3443;48.812;9.112;2023-04-15T05:31:07;3.40;99.90
6810;DHT22;3443;48.812;9.112;2023-04-15T05:33:33;3.40;99.90
6810;DHT22;3443;48.812;9.112;2023-04-15T05:35:58;3.50;99.90
6810;DHT22;3443;48.812;9.112;2023-04-15T05:38:24;3.50;99.90
6810;DHT22;3443;48.812;9.112;2023-04-15T05:40:50;3.60;99.90
6810;DHT22;3443;48.812;9.112;2023-04-15T05:43:15;3.60;99.90
6810;DHT22;3443;48.812;9.112;2023-04-15T05:45:41;3.70;99.90
6810;DHT22;3443;48.812;9.112;2023-04-15T05:48:06;3.80;99.90
6810;DHT22;3443;48.812;9.112;2023-04-15T05:50:32;3.90;99.90
6810;DHT22;3443;48.812;9.112;2023-04-15T05:52:58;4.00;99.90
6810;DHT22;3443;48.812;9.112;2023-04-15T05:55:23;4.20;99.90
6810;DHT22;3443;48.812;9.112;2023-04-15T05:57:49;4.30;99.90
6810;DHT22;3443;48.812;9.112;2023-04-15T06:00:15;4.30;99.90
6810;DHT22;3443;48.812;9.112;2023-04-15T06:02:40;4.40;99.90
6810;DHT22;3443;48.812;9.112;2023-04-15T06:05:07;4.40;99.90
6810;DHT22;3443;48.812;9.112;2023-04-15T06:07:36;4.40;99.90
6810;DHT22;3443;48.812;9.112;2023-04-15T06:10:03;4.40;99.90
6810;DHT22;3443;48.812;9.112;2023-04-15T06:12:29;4.50;99.90
6810;DHT22;3443;48.812;9.112;2023-04-15T06:14:54;4.50;99.90
6810;DHT22;3443;48.812;9.112;2023-04-15T06:17:20;4.60;99.90
6810;DHT22;3443;48.812;9.112;2023-04-15T06:19:46;4.70;99.90
6810;DHT22;3443;48.812;9.112;2023-04-15T06:22:11;4.70;99.90
6810;DHT22;3443;48.812;9.112;2023-04-15T06:24:37;4.80;99.90
6810;DHT22;3443;48.812;9.112;2023-04-15T06:27:03;5.00;99.90
6810;DHT22;3443;48.812;9.112;2023-04-15T06:29:28;5.00;99.90
6810;DHT22;3443;48.812;9.112;2023-04-15T06:31:54;5.10;99.90
6810;DHT22;3443;48.812;9.112;2023-04-15T06:34:20;5.10;99.90
6810;DHT22;3443;48.812;9.112;2023-04-15T06:36:46;5.20;99.90
6810;DHT22;3443;48.812;9.112;2023-04-15T06:39:12;5.40;99.90
6810;DHT22;3443;48.812;9.112;2023-04-15T06:41:38;5.50;99.90
6810;DHT22;3443;48.812;9.112;2023-04-15T06:44:03;5.60;99.90
6810;DHT22;3443;48.812;9.112;2023-04-15T06:46:30;5.80;99.90
6810;DHT22;3443;48.812;9.112;2023-04-15T06:48:55;5.90;99.90
6810;DHT22;3443;48.812;9.112;2023-04-15T06:51:21;6.00;99.90
6810;DHT22;3443;48.812;9.112;2023-04-15T06:53:48;6.10;99.90
6810;DHT22;3443;48.812;9.112;2023-04-15T06:56:13;6.30;99.90
6810;DHT22;3443;48.812;9.112;2023-04-15T06:58:39;6.40;99.90
6810;DHT22;3443;48.812;9.112;2023-04-15T07:01:04;6.50;99.90
6810;DHT22;3443;48.812;9.112;2023-04-15T07:03:32;6.50;99.90
6810;DHT22;3443;48.812;9.112;2023-04-15T07:05:57;6.60;99.90
6810;DHT22;3443;48.812;9.112;2023-04-15T07:08:23;6.60;99.90
6810;DHT22;3443;48.812;9.112;2023-04-15T07:10:48;6.60;99.90
6810;DHT22;3443;48.812;9.112;2023-04-15T07:13:14;6.80;99.90
6810;DHT22;3443;48.812;9.112;2023-04-15T07:15:40;6.90;99.90
6810;DHT22;3443;48.812;9.112;2023-04-15T07:18:05;7.10;99.90
6810;DHT22;3443;48.812;9.112;2023-04-15T07:20:31;7.30;99.90
6810;DHT22;3443;48.812;9.112;2023-04-15T07:22:56;7.40;99.90
6810;DHT22;3443;48.812;9.112;2023-04-15T07:25:22;7.60;99.90
6810;DHT22;3443;48.812;9.112;2023-04-15T07:27:48;7.70;99.90
6810;DHT22;3443;48.812;9.112;2023-04-15T07:30:13;7.90;99.90
6810;DHT22;3443;48.812;9.112;2023-04-15T07:32:39;8.00;99.90
6810;DHT22;3443;48.812;9.112;2023-04-15T07:35:06;8.00;99.90
6810;DHT22;3443;48.812;9.112;2023-04-15T07:37:32;8.10;99.90
6810;DHT22;3443;48.812;9.112;2023-04-15T07:39:57;8.20;99.90
6810;DHT22;3443;48.812;9.112;2023-04-15T07:42:23;8.40;99.90
6810;DHT22;3443;48.812;9.112;2023-04-15T07:44:49;8.50;99.90
6810;DHT22;3443;48.812;9.112;2023-04-15T07:47:14;8.60;99.90
6810;DHT22;3443;48.812;9.112;2023-04-15T07:49:41;8.80;99.90
6810;DHT22;3443;48.812;9.112;2023-04-15T07:52:07;8.80;99.90
6810;DHT22;3443;48.812;9.112;2023-04-15T07:54:33;8.90;99.90
6810;DHT22;3443;48.812;9.112;2023-04-15T07:56:58;8.90;99.90
6810;DHT22;3443;48.812;9.112;2023-04-15T07:59:24;9.00;99.90
6810;DHT22;3443;48.812;9.112;2023-04-15T08:01:50;9.10;99.90
6810;DHT22;3443;48.812;9.112;2023-04-15T08:04:15;9.20;99.90
6810;DHT22;3443;48.812;9.112;2023-04-15T08:06:41;9.30;99.90
6810;DHT22;3443;48.812;9.112;2023-04-15T08:09:06;9.40;99.90
6810;DHT22;3443;48.812;9.112;2023-04-15T08:11:32;9.50;99.90
6810;DHT22;3443;48.812;9.112;2023-04-15T08:13:58;9.70;99.90
6810;DHT22;3443;48.812;9.112;2023-04-15T08:16:24;9.90;99.90
6810;DHT22;3443;48.812;9.112;2023-04-15T08:18:52;10.00;99.90
6810;DHT22;3443;48.812;9.112;2023-04-15T08:21:18;10.30;99.90
6810;DHT22;3443;48.812;9.112;2023-04-15T08:23:45;10.50;99.90
6810;DHT22;3443;48.812;9.112;2023-04-15T08:26:12;10.90;99.90
6810;DHT22;3443;48.812;9.112;2023-04-15T08:28:39;11.20;99.90
6810;DHT22;3443;48.812;9.112;2023-04-15T08:31:05;11.30;99.90
6810;DHT22;3443;48.812;9.112;2023-04-15T08:33:30;11.40;99.90
6810;DHT22;3443;48.812;9.112;2023-04-15T08:35:56;11.00;99.90
6810;DHT22;3443;48.812;9.112;2023-04-15T08:38:22;11.50;99.90
6810;DHT22;3443;48.812;9.112;2023-04-15T08:40:48;11.60;99.90
6810;DHT22;3443;48.812;9.112;2023-04-15T08:43:26;11.50;99.90
6810;DHT22;3443;48.812;9.112;2023-04-15T08:45:53;11.70;99.90
6810;DHT22;3443;48.812;9.112;2023-04-15T08:48:19;11.70;99.90
6810;DHT22;3443;48.812;9.112;2023-04-15T08:50:46;11.70;99.90
6810;DHT22;3443;48.812;9.112;2023-04-15T08:53:13;11.80;99.90
6810;DHT22;3443;48.812;9.112;2023-04-15T08:55:46;12.10;99.90
6810;DHT22;3443;48.812;9.112;2023-04-15T08:58:15;12.60;99.90
6810;DHT22;3443;48.812;9.112;2023-04-15T09:00:41;12.70;99.90
6810;DHT22;3443;48.812;9.112;2023-04-15T09:03:08;12.70;99.90
6810;DHT22;3443;48.812;9.112;2023-04-15T09:05:35;12.70;99.90
6810;DHT22;3443;48.812;9.112;2023-04-15T09:08:01;12.90;99.90
6810;DHT22;3443;48.812;9.112;2023-04-15T09:10:28;13.10;99.90
6810;DHT22;3443;48.812;9.112;2023-04-15T09:12:54;13.10;99.90
6810;DHT22;3443;48.812;9.112;2023-04-15T09:15:20;13.20;99.90
6810;DHT22;3443;48.812;9.112;2023-04-15T09:17:46;13.20;99.90
6810;DHT22;3443;48.812;9.112;2023-04-15T09:20:14;13.30;99.90
6810;DHT22;3443;48.812;9.112;2023-04-15T09:22:42;13.40;99.90
6810;DHT22;3443;48.812;9.112;2023-04-15T09:27:58;13.20;99.90
6810;DHT22;3443;48.812;9.112;2023-04-15T09:30:24;13.30;99.90
6810;DHT22;3443;48.812;9.112;2023-04-15T09:35:20;13.80;99.90
6810;DHT22;3443;48.812;9.112;2023-04-15T09:37:46;13.90;99.90
6810;DHT22;3443;48.812;9.112;2023-04-15T09:40:12;13.90;99.90
6810;DHT22;3443;48.812;9.112;2023-04-15T09:42:56;14.00;99.90
6810;DHT22;3443;48.812;9.112;2023-04-15T09:45:22;14.10;99.90
6810;DHT22;3443;48.812;9.112;2023-04-15T09:47:48;14.20;99.90
6810;DHT22;3443;48.812;9.112;2023-04-15T09:50:16;14.30;99.90
6810;DHT22;3443;48.812;9.112;2023-04-15T09:52:43;14.10;99.90
6810;DHT22;3443;48.812;9.112;2023-04-15T09:55:09;14.00;99.90
6810;DHT22;3443;48.812;9.112;2023-04-15T09:57:36;13.90;99.90
6810;DHT22;3443;48.812;9.112;2023-04-15T10:00:06;13.80;99.90
6810;DHT22;3443;48.812;9.112;2023-04-15T10:02:34;13.90;99.90
6810;DHT22;3443;48.812;9.112;2023-04-15T10:05:01;13.80;99.90
6810;DHT22;3443;48.812;9.112;2023-04-15T10:07:27;13.80;99.90
6810;DHT22;3443;48.812;9.112;2023-04-15T10:09:53;14.00;99.90
6810;DHT22;3443;48.812;9.112;2023-04-15T10:12:19;14.00;99.90
6810;DHT22;3443;48.812;9.112;2023-04-15T10:14:57;14.20;99.90
6810;DHT22;3443;48.812;9.112;2023-04-15T10:17:26;14.10;99.90
6810;DHT22;3443;48.812;9.112;2023-04-15T10:19:53;13.90;99.90
6810;DHT22;3443;48.812;9.112;2023-04-15T10:22:21;13.70;99.90
6810;DHT22;3443;48.812;9.112;2023-04-15T10:24:47;13.30;99.90
6810;DHT22;3443;48.812;9.112;2023-04-15T10:27:13;13.20;99.90
6810;DHT22;3443;48.812;9.112;2023-04-15T10:29:39;13.20;99.90
6810;DHT22;3443;48.812;9.112;2023-04-15T10:32:05;13.20;99.90
6810;DHT22;3443;48.812;9.112;2023-04-15T10:34:31;13.30;99.90
6810;DHT22;3443;48.812;9.112;2023-04-15T10:37:00;13.50;99.90
6810;DHT22;3443;48.812;9.112;2023-04-15T10:42:07;13.70;99.90
6810;DHT22;3443;48.812;9.112;2023-04-15T10:44:34;14.20;99.90
6810;DHT22;3443;48.812;9.112;2023-04-15T10:47:39;14.40;99.90
6810;DHT22;3443;48.812;9.112;2023-04-15T10:50:00;14.40;99.90
6810;DHT22;3443;48.812;9.112;2023-04-15T10:52:27;14.20;99.90
6810;DHT22;3443;48.812;9.112;2023-04-15T10:55:12;14.10;99.90
6810;DHT22;3443;48.812;9.112;2023-04-15T10:57:39;14.00;99.90
6810;DHT22;3443;48.812;9.112;2023-04-15T11:00:12;13.90;99.90
6810;DHT22;3443;48.812;9.112;2023-04-15T11:05:14;13.60;99.90
6810;DHT22;3443;48.812;9.112;2023-04-15T11:07:47;13.60;99.90
6810;DHT22;3443;48.812;9.112;2023-04-15T11:12:51;13.70;99.90
6810;DHT22;3443;48.812;9.112;2023-04-15T11:15:33;13.80;99.90
6810;DHT22;3443;48.812;9.112;2023-04-15T11:20:54;14.40;99.90
6810;DHT22;3443;48.812;9.112;2023-04-15T11:23:36;14.60;99.90
6810;DHT22;3443;48.812;9.112;2023-04-15T11:26:04;14.50;99.90
6810;DHT22;3443;48.812;9.112;2023-04-15T11:28:32;14.50;99.90
6810;DHT22;3443;48.812;9.112;2023-04-15T11:31:02;14.70;99.90
6810;DHT22;3443;48.812;9.112;2023-04-15T11:33:30;14.70;99.90
6810;DHT22;3443;48.812;9.112;2023-04-15T11:35:55;14.70;99.90
6810;DHT22;3443;48.812;9.112;2023-04-15T11:38:21;14.40;99.90
6810;DHT22;3443;48.812;9.112;2023-04-15T11:40:47;14.10;99.90
6810;DHT22;3443;48.812;9.112;2023-04-15T11:43:18;13.80;99.90
6810;DHT22;3443;48.812;9.112;2023-04-15T11:45:57;13.60;99.90
6810;DHT22;3443;48.812;9.112;2023-04-15T11:48:26;13.70;99.90
6810;DHT22;3443;48.812;9.112;2023-04-15T11:50:57;13.90;99.90
6810;DHT22;3443;48.812;9.112;2023-04-15T11:53:24;14.00;
6810;DHT22;3443;48.812;9.112;2023-04-15T11:56:00;14.30;99.90
6810;DHT22;3443;48.812;9.112;2023-04-15T11:58:26;14.40;99.90
6810;DHT22;3443;48.812;9.112;2023-04-15T12:00:53;14.40;99.90
6810;DHT22;3443;48.812;9.112;2023-04-15T12:08:57;14.50;99.90
6810;DHT22;3443;48.812;9.112;2023-04-15T12:16:29;14.80;99.90
6810;DHT22;3443;48.812;9.112;2023-04-15T12:18:57;15.00;99.90
6810;DHT22;3443;48.812;9.112;2023-04-15T12:21:25;14.80;99.90
6810;DHT22;3443;48.812;9.112;2023-04-15T12:23:52;14.70;99.90
6810;DHT22;3443;48.812;9.112;2023-04-15T12:26:25;14.50;99.90
6810;DHT22;3443;48.812;9.112;2023-04-15T12:28:55;13.90;99.90
6810;DHT22;3443;48.812;9.112;2023-04-15T12:31:24;13.20;99.90
6810;DHT22;3443;48.812;9.112;2023-04-15T12:33:50;12.40;99.90
6810;DHT22;3443;48.812;9.112;2023-04-15T12:36:16;11.70;99.90
6810;DHT22;3443;48.812;9.112;2023-04-15T12:38:41;11.50;99.90
6810;DHT22;3443;48.812;9.112;2023-04-15T12:41:07;11.30;99.90
6810;DHT22;3443;48.812;9.112;2023-04-15T12:43:33;11.10;99.90
6810;DHT22;3443;48.812;9.112;2023-04-15T12:45:59;11.10;99.90
6810;DHT22;3443;48.812;9.112;2023-04-15T12:48:24;10.90;99.90
6810;DHT22;3443;48.812;9.112;2023-04-15T12:50:50;10.80;99.90
6810;DHT22;3443;48.812;9.112;2023-04-15T12:53:16;11.00;99.90
6810;DHT22;3443;48.812;9.112;2023-04-15T12:55:41;11.20;99.90
6810;DHT22;3443;48.812;9.112;2023-04-15T12:58:07;11.20;99.90
6810;DHT22;3443;48.812;9.112;2023-04-15T13:00:34;11.30;99.90
6810;DHT22;3443;48.812;9.112;2023-04-15T13:02:59;11.60;99.90
6810;DHT22;3443;48.812;9.112;2023-04-15T13:05:25;11.80;99.90
6810;DHT22;3443;48.812;9.112;2023-04-15T13:07:50;11.90;99.90
6810;DHT22;3443;48.812;9.112;2023-04-15T13:10:16;12.20;99.90
6810;DHT22;3443;48.812;9.112;2023-04-15T13:12:42;12.40;99.90
6810;DHT22;3443;48.812;9.112;2023-04-15T13:15:08;12.50;99.90
6810;DHT22;3443;48.812;9.112;2023-04-15T13:17:35;12.50;99.90
6810;DHT22;3443;48.812;9.112;2023-04-15T13:20:01;12.50;99.90
6810;DHT22;3443;48.812;9.112;2023-04-15T13:22:26;12.50;99.90
6810;DHT22;3443;48.812;9.112;2023-04-15T13:24:52;12.50;99.90
6810;DHT22;3443;48.812;9.112;2023-04-15T13:27:17;12.40;99.90
6810;DHT22;3443;48.812;9.112;2023-04-15T13:29:43;12.50;99.90
6810;DHT22;3443;48.812;9.112;2023-04-15T13:32:09;12.50;99.90
6810;DHT22;3443;48.812;9.112;2023-04-15T13:34:34;12.60;99.90
6810;DHT22;3443;48.812;9.112;2023-04-15T13:37:09;12.60;99.90
6810;DHT22;3443;48.812;9.112;2023-04-15T13:39:34;12.70;99.90
6810;DHT22;3443;48.812;9.112;2023-04-15T13:42:00;12.80;99.90
6810;DHT22;3443;48.812;9.112;2023-04-15T13:44:27;12.90;99.90
6810;DHT22;3443;48.812;9.112;2023-04-15T13:46:52;12.90;99.90
6810;DHT22;3443;48.812;9.112;2023-04-15T13:49:18;13.00;99.90
6810;DHT22;3443;48.812;9.112;2023-04-15T13:51:43;13.10;99.90
6810;DHT22;3443;48.812;9.112;2023-04-15T13:54:09;13.00;99.90
6810;DHT22;3443;48.812;9.112;2023-04-15T13:56:35;13.10;99.90
6810;DHT22;3443;48.812;9.112;2023-04-15T13:59:01;13.10;99.90
6810;DHT22;3443;48.812;9.112;2023-04-15T14:01:27;12.90;99.90
6810;DHT22;3443;48.812;9.112;2023-04-15T14:03:53;12.80;99.90
6810;DHT22;3443;48.812;9.112;2023-04-15T14:06:19;12.60;99.90
6810;DHT22;3443;48.812;9.112;2023-04-15T14:08:44;12.50;99.90
6810;DHT22;3443;48.812;9.112;2023-04-15T14:11:10;12.40;99.90
6810;DHT22;3443;48.812;9.112;2023-04-15T14:13:36;12.30;98.80
6810;DHT22;3443;48.812;9.112;2023-04-15T14:16:02;12.20;99.80
6810;DHT22;3443;48.812;9.112;2023-04-15T14:18:28;12.30;99.90
6810;DHT22;3443;48.812;9.112;2023-04-15T14:20:54;12.20;99.90
6810;DHT22;3443;48.812;9.112;2023-04-15T14:23:21;12.20;99.90
6810;DHT22;3443;48.812;9.112;2023-04-15T14:25:46;12.10;99.90
6810;DHT22;3443;48.812;9.112;2023-04-15T14:28:12;12.00;99.90
6810;DHT22;3443;48.812;9.112;2023-04-15T14:30:37;11.90;99.90
6810;DHT22;3443;48.812;9.112;2023-04-15T14:33:03;11.90;99.90
6810;DHT22;3443;48.812;9.112;2023-04-15T14:35:29;11.80;99.90
6810;DHT22;3443;48.812;9.112;2023-04-15T14:37:55;11.70;99.90
6810;DHT22;3443;48.812;9.112;2023-04-15T14:40:21;11.60;99.90
6810;DHT22;3443;48.812;9.112;2023-04-15T14:42:47;11.70;99.90
6810;DHT22;3443;48.812;9.112;2023-04-15T14:45:12;11.70;99.90
6810;DHT22;3443;48.812;9.112;2023-04-15T14:47:38;11.70;99.90
6810;DHT22;3443;48.812;9.112;2023-04-15T14:50:04;11.60;99.90
6810;DHT22;3443;48.812;9.112;2023-04-15T14:52:30;11.60;99.90
6810;DHT22;3443;48.812;9.112;2023-04-15T14:55:08;11.50;99.90
6810;DHT22;3443;48.812;9.112;2023-04-15T14:57:35;11.40;99.90
6810;DHT22;3443;48.812;9.112;2023-04-15T15:00:02;11.20;99.90
6810;DHT22;3443;48.812;9.112;2023-04-15T15:02:28;11.10;99.90
6810;DHT22;3443;48.812;9.112;2023-04-15T15:04:54;11.00;99.90
6810;DHT22;3443;48.812;9.112;2023-04-15T15:07:21;10.90;99.90
6810;DHT22;3443;48.812;9.112;2023-04-15T15:09:46;10.70;99.90
6810;DHT22;3443;48.812;9.112;2023-04-15T15:12:12;10.60;99.90
6810;DHT22;3443;48.812;9.112;2023-04-15T15:14:37;10.60;99.90
6810;DHT22;3443;48.812;9.112;2023-04-15T15:17:03;10.60;99.90
6810;DHT22;3443;48.812;9.112;2023-04-15T15:19:28;10.60;99.90
6810;DHT22;3443;48.812;9.112;2023-04-15T15:21:54;10.60;99.90
6810;DHT22;3443;48.812;9.112;2023-04-15T15:24:20;10.60;99.90
6810;DHT22;3443;48.812;9.112;2023-04-15T15:26:45;10.60;99.90
6810;DHT22;3443;48.812;9.112;2023-04-15T15:29:11;10.60;99.90
6810;DHT22;3443;48.812;9.112;2023-04-15T15:31:36;10.60;99.90
6810;DHT22;3443;48.812;9.112;2023-04-15T15:34:03;10.60;99.90
6810;DHT22;3443;48.812;9.112;2023-04-15T15:36:29;10.60;99.90
6810;DHT22;3443;48.812;9.112;2023-04-15T15:38:56;10.60;99.90
6810;DHT22;3443;48.812;9.112;2023-04-15T15:41:22;10.70;99.90
6810;DHT22;3443;48.812;9.112;2023-04-15T15:43:47;10.70;99.90
6810;DHT22;3443;48.812;9.112;2023-04-15T15:46:13;10.70;99.90
6810;DHT22;3443;48.812;9.112;2023-04-15T15:48:39;10.70;99.90
6810;DHT22;3443;48.812;9.112;2023-04-15T15:51:04;10.70;99.90
6810;DHT22;3443;48.812;9.112;2023-04-15T15:53:30;10.70;99.90
6810;DHT22;3443;48.812;9.112;2023-04-15T15:55:55;10.70;99.90
6810;DHT22;3443;48.812;9.112;2023-04-15T15:58:21;10.70;99.90
6810;DHT22;3443;48.812;9.112;2023-04-15T16:00:46;10.80;99.90
6810;DHT22;3443;48.812;9.112;2023-04-15T16:03:12;10.80;99.90
6810;DHT22;3443;48.812;9.112;2023-04-15T16:05:37;10.80;99.90
6810;DHT22;3443;48.812;9.112;2023-04-15T16:08:03;10.80;99.90
6810;DHT22;3443;48.812;9.112;2023-04-15T16:10:29;10.80;99.90
6810;DHT22;3443;48.812;9.112;2023-04-15T16:12:55;10.80;99.90
6810;DHT22;3443;48.812;9.112;2023-04-15T16:15:23;10.80;99.90
6810;DHT22;3443;48.812;9.112;2023-04-15T16:17:49;10.60;99.90
6810;DHT22;3443;48.812;9.112;2023-04-15T16:20:15;10.40;99.90
6810;DHT22;3443;48.812;9.112;2023-04-15T16:22:41;10.30;99.90
6810;DHT22;3443;48.812;9.112;2023-04-15T16:25:06;10.20;99.90
6810;DHT22;3443;48.812;9.112;2023-04-15T16:27:32;10.10;99.90
6810;DHT22;3443;48.812;9.112;2023-04-15T16:29:58;10.00;99.90
6810;DHT22;3443;48.812;9.112;2023-04-15T16:32:23;9.80;99.90